createdAt,value
2023-04-16T00:00:09.552Z,18.01
2023-04-16T00:00:20.533Z,18.01
2023-04-16T00:00:31.633Z,18.01
2023-04-16T00:00:43.565Z,18.02
2023-04-16T00:00:54.559Z,18.01
2023-04-16T00:01:05.538Z,18.00
2023-04-16T00:01:16.609Z,18.01
2023-04-16T00:01:28.552Z,18.02
2023-04-16T00:01:39.540Z,18.01
2023-04-16T00:01:50.568Z,18.01
2023-04-16T00:02:01.718Z,18.01
2023-04-16T00:02:13.796Z,18.01
2023-04-16T00:02:25.654Z,18.01
2023-04-16T00:02:37.748Z,18.00
2023-04-16T00:02:48.702Z,17.99
2023-04-16T00:02:59.797Z,18.00
2023-04-16T00:03:10.675Z,18.01
2023-04-16T00:03:21.795Z,18.00
2023-04-16T00:03:33.749Z,18.00
2023-04-16T00:03:44.776Z,18.01
2023-04-16T00:03:56.745Z,18.02
2023-04-16T00:04:08.754Z,18.00
2023-04-16T00:04:20.677Z,18.00
2023-04-16T00:04:32.639Z,18.01
2023-04-16T00:04:44.667Z,18.01
2023-04-16T00:04:56.599Z,18.01
2023-04-16T00:05:08.631Z,18.01
2023-04-16T00:05:20.561Z,17.99
2023-04-16T00:05:31.547Z,18.01
2023-04-16T00:05:42.655Z,18.01
2023-04-16T00:05:54.620Z,18.01
2023-04-16T00:06:06.555Z,18.00
2023-04-16T00:06:17.574Z,18.00
2023-04-16T00:06:28.574Z,18.03
2023-04-16T00:06:39.573Z,18.03
2023-04-16T00:06:50.547Z,18.02
2023-04-16T00:07:01.524Z,18.01
2023-04-16T00:07:12.608Z,18.01
2023-04-16T00:07:24.566Z,18.01
2023-04-16T00:07:35.538Z,18.01
2023-04-16T00:07:46.622Z,18.02
2023-04-16T00:07:58.562Z,18.01
2023-04-16T00:08:09.586Z,18.01
2023-04-16T00:08:20.570Z,18.01
2023-04-16T00:08:31.575Z,18.00
2023-04-16T00:08:42.609Z,18.00
2023-04-16T00:08:53.573Z,18.00
2023-04-16T00:09:05.611Z,18.00
2023-04-16T00:09:17.554Z,18.01
2023-04-16T00:09:28.535Z,18.01
2023-04-16T00:09:39.539Z,18.00
2023-04-16T00:09:50.617Z,18.02
2023-04-16T00:10:02.558Z,18.01
2023-04-16T00:10:13.560Z,18.01
2023-04-16T00:10:24.546Z,18.01
2023-04-16T00:10:35.577Z,18.00
2023-04-16T00:10:46.557Z,18.00
2023-04-16T00:10:57.561Z,18.01
2023-04-16T00:11:08.562Z,18.01
2023-04-16T00:11:19.530Z,18.00
2023-04-16T00:11:30.549Z,18.01
2023-04-16T00:11:41.520Z,18.01
2023-04-16T00:11:52.667Z,18.01
2023-04-16T00:12:04.631Z,18.00
2023-04-16T00:12:16.612Z,18.01
2023-04-16T00:12:27.585Z,18.02
2023-04-16T00:12:38.561Z,18.00
2023-04-16T00:12:49.547Z,18.00
2023-04-16T00:13:00.526Z,18.00
2023-04-16T00:13:11.606Z,18.00
2023-04-16T00:13:22.650Z,18.01
2023-04-16T00:13:34.566Z,18.02
2023-04-16T00:13:45.581Z,18.01
2023-04-16T00:13:56.574Z,18.02
2023-04-16T00:14:07.557Z,18.02
2023-04-16T00:14:18.543Z,18.01
2023-04-16T00:14:29.530Z,18.01
2023-04-16T00:14:40.610Z,18.01
2023-04-16T00:14:52.560Z,18.02
2023-04-16T00:15:03.545Z,18.02
2023-04-16T00:15:14.544Z,18.02
2023-04-16T00:15:25.646Z,18.01
2023-04-16T00:15:37.576Z,18.01
2023-04-16T00:15:48.582Z,18.03
2023-04-16T00:15:59.558Z,18.01
2023-04-16T00:16:10.532Z,18.02
2023-04-16T00:16:21.648Z,18.03
2023-04-16T00:16:33.583Z,18.01
2023-04-16T00:16:44.602Z,18.03
2023-04-16T00:16:55.627Z,18.03
2023-04-16T00:17:06.633Z,18.03
2023-04-16T00:17:17.546Z,18.01
2023-04-16T00:17:28.662Z,18.01
2023-04-16T00:17:40.690Z,18.02
2023-04-16T00:17:52.735Z,18.02
2023-04-16T00:18:03.622Z,18.02
2023-04-16T00:18:15.631Z,18.03
2023-04-16T00:18:26.579Z,18.00
2023-04-16T00:18:37.559Z,18.02
2023-04-16T00:18:48.549Z,18.00
2023-04-16T00:18:59.533Z,18.01
2023-04-16T00:19:10.780Z,18.02
2023-04-16T00:19:22.609Z,18.00
2023-04-16T00:19:34.563Z,18.01
2023-04-16T00:19:45.534Z,18.00
2023-04-16T00:19:56.615Z,17.99
2023-04-16T00:20:08.547Z,18.02
2023-04-16T00:20:19.624Z,18.02
2023-04-16T00:20:31.567Z,18.01
2023-04-16T00:20:42.594Z,18.02
2023-04-16T00:20:53.576Z,18.02
2023-04-16T00:21:04.575Z,18.00
2023-04-16T00:21:15.582Z,18.01
2023-04-16T00:21:26.574Z,18.00
2023-04-16T00:21:37.559Z,18.01
2023-04-16T00:21:48.549Z,18.02
2023-04-16T00:21:59.526Z,18.01
2023-04-16T00:22:10.591Z,18.02
2023-04-16T00:22:21.572Z,18.01
2023-04-16T00:22:32.556Z,18.01
2023-04-16T00:22:43.555Z,18.01
2023-04-16T00:22:54.532Z,18.00
2023-04-16T00:23:05.613Z,18.01
2023-04-16T00:23:17.559Z,18.00
2023-04-16T00:23:28.546Z,18.02
2023-04-16T00:23:39.533Z,18.01
2023-04-16T00:23:50.597Z,18.02
2023-04-16T00:24:01.594Z,18.02
2023-04-16T00:24:13.572Z,18.02
2023-04-16T00:24:24.546Z,18.00
2023-04-16T00:24:35.624Z,18.02
2023-04-16T00:24:47.562Z,18.02
2023-04-16T00:24:58.578Z,18.02
2023-04-16T00:25:09.559Z,18.01
2023-04-16T00:25:20.531Z,18.02
2023-04-16T00:25:31.609Z,18.02
2023-04-16T00:25:42.621Z,18.03
2023-04-16T00:25:54.570Z,18.02
2023-04-16T00:26:05.542Z,18.03
2023-04-16T00:26:16.614Z,18.03
2023-04-16T00:26:28.570Z,18.02
2023-04-16T00:26:39.563Z,18.02
2023-04-16T00:26:50.552Z,18.02
2023-04-16T00:27:01.559Z,18.03
2023-04-16T00:27:12.589Z,18.03
2023-04-16T00:27:23.524Z,18.01
2023-04-16T00:27:34.609Z,18.01
2023-04-16T00:27:46.556Z,18.02
2023-04-16T00:27:57.533Z,18.02
2023-04-16T00:28:10.037Z,18.03
2023-04-16T00:28:20.614Z,18.02
2023-04-16T00:28:32.551Z,18.02
2023-04-16T00:28:43.544Z,18.03
2023-04-16T00:28:54.524Z,18.02
2023-04-16T00:29:05.583Z,18.02
2023-04-16T00:29:16.565Z,18.04
2023-04-16T00:29:27.530Z,18.03
2023-04-16T00:29:38.537Z,18.03
2023-04-16T00:29:49.525Z,18.02
2023-04-16T00:30:00.631Z,18.03
2023-04-16T00:30:12.617Z,18.03
2023-04-16T00:30:24.574Z,18.02
2023-04-16T00:30:35.577Z,18.03
2023-04-16T00:30:46.640Z,18.02
2023-04-16T00:30:57.585Z,18.02
2023-04-16T00:31:08.598Z,18.02
2023-04-16T00:31:19.607Z,18.02
2023-04-16T00:31:31.629Z,18.02
2023-04-16T00:31:42.546Z,18.02
2023-04-16T00:31:53.545Z,18.04
2023-04-16T00:32:04.619Z,18.03
2023-04-16T00:32:16.555Z,18.02
2023-04-16T00:32:27.581Z,18.02
2023-04-16T00:32:38.628Z,18.02
2023-04-16T00:32:49.570Z,18.03
2023-04-16T00:33:00.594Z,18.02
2023-04-16T00:33:12.586Z,18.02
2023-04-16T00:33:24.552Z,18.03
2023-04-16T00:33:35.625Z,18.01
2023-04-16T00:33:47.588Z,18.02
2023-04-16T00:33:58.566Z,18.02
2023-04-16T00:34:09.569Z,18.02
2023-04-16T00:34:20.548Z,18.02
2023-04-16T00:34:31.546Z,18.02
2023-04-16T00:34:42.580Z,18.02
2023-04-16T00:34:53.579Z,18.02
2023-04-16T00:35:04.564Z,18.02
2023-04-16T00:35:15.556Z,18.04
2023-04-16T00:35:26.541Z,18.03
2023-04-16T00:35:37.533Z,18.03
2023-04-16T00:35:48.626Z,18.02
2023-04-16T00:36:00.572Z,18.01
2023-04-16T00:36:11.560Z,18.02
2023-04-16T00:36:22.543Z,18.02
2023-04-16T00:36:33.619Z,18.02
2023-04-16T00:36:45.557Z,18.02
2023-04-16T00:36:56.537Z,18.02
2023-04-16T00:37:07.604Z,18.02
2023-04-16T00:37:18.586Z,18.02
2023-04-16T00:37:29.558Z,18.02
2023-04-16T00:37:40.557Z,18.02
2023-04-16T00:37:51.547Z,18.02
2023-04-16T00:38:02.587Z,18.01
2023-04-16T00:38:13.578Z,18.02
2023-04-16T00:38:24.575Z,18.03
2023-04-16T00:38:35.556Z,18.01
2023-04-16T00:38:46.540Z,18.00
2023-04-16T00:38:57.535Z,18.01
2023-04-16T00:39:08.942Z,18.01
2023-04-16T00:39:19.525Z,18.01
2023-04-16T00:39:30.613Z,18.01
2023-04-16T00:39:42.550Z,18.01
2023-04-16T00:39:53.562Z,18.01
2023-04-16T00:40:04.549Z,18.01
2023-04-16T00:40:15.532Z,18.01
2023-04-16T00:40:26.528Z,18.02
2023-04-16T00:40:37.609Z,18.01
2023-04-16T00:40:49.549Z,18.01
2023-04-16T00:41:00.555Z,18.01
2023-04-16T00:41:11.525Z,18.01
2023-04-16T00:41:22.606Z,18.00
2023-04-16T00:41:33.579Z,18.02
2023-04-16T00:41:44.556Z,18.01
2023-04-16T00:41:55.514Z,18.01
2023-04-16T00:42:06.713Z,18.01
2023-04-16T00:42:18.562Z,18.00
2023-04-16T00:42:29.536Z,18.03
2023-04-16T00:42:40.621Z,18.02
2023-04-16T00:42:52.567Z,18.00
2023-04-16T00:43:03.549Z,18.01
2023-04-16T00:43:14.510Z,18.01
2023-04-16T00:43:25.602Z,18.02
2023-04-16T00:43:37.582Z,18.02
2023-04-16T00:43:48.547Z,18.02
2023-04-16T00:43:59.523Z,18.02
2023-04-16T00:44:10.604Z,18.02
2023-04-16T00:44:21.576Z,18.03
2023-04-16T00:44:32.547Z,18.02
2023-04-16T00:44:43.543Z,18.03
2023-04-16T00:44:54.534Z,18.03
2023-04-16T00:45:05.614Z,18.03
2023-04-16T00:45:17.569Z,18.02
2023-04-16T00:45:28.552Z,18.02
2023-04-16T00:45:39.543Z,18.03
2023-04-16T00:45:50.680Z,18.02
2023-04-16T00:46:02.668Z,18.02
2023-04-16T00:46:13.632Z,18.02
2023-04-16T00:46:24.600Z,18.02
2023-04-16T00:46:35.647Z,18.02
2023-04-16T00:46:47.675Z,18.02
2023-04-16T00:46:59.615Z,18.02
2023-04-16T00:47:11.554Z,18.03
2023-04-16T00:47:22.572Z,18.02
2023-04-16T00:47:33.610Z,18.02
2023-04-16T00:47:45.611Z,18.02
2023-04-16T00:47:59.291Z,18.02
2023-04-16T00:48:09.558Z,18.02
2023-04-16T00:48:20.546Z,18.03
2023-04-16T00:48:31.654Z,18.03
2023-04-16T00:48:43.607Z,18.03
2023-04-16T00:48:55.560Z,18.02
2023-04-16T00:49:06.699Z,18.04
2023-04-16T00:49:17.558Z,18.04
2023-04-16T00:49:28.554Z,18.03
2023-04-16T00:49:39.531Z,18.03
2023-04-16T00:49:50.610Z,18.03
2023-04-16T00:50:01.596Z,18.03
2023-04-16T00:50:12.556Z,18.03
2023-04-16T00:50:23.538Z,18.03
2023-04-16T00:50:34.530Z,18.03
2023-04-16T00:50:45.592Z,18.03
2023-04-16T00:50:56.588Z,18.02
2023-04-16T00:51:07.561Z,18.04
2023-04-16T00:51:18.550Z,18.03
2023-04-16T00:51:29.536Z,18.02
2023-04-16T00:51:40.600Z,18.03
2023-04-16T00:51:51.579Z,18.03
2023-04-16T00:52:02.596Z,18.02
2023-04-16T00:52:13.547Z,18.02
2023-04-16T00:52:24.527Z,18.02
2023-04-16T00:52:35.607Z,18.04
2023-04-16T00:52:46.582Z,18.03
2023-04-16T00:52:57.556Z,18.04
2023-04-16T00:53:08.544Z,18.03
2023-04-16T00:53:19.527Z,18.03
2023-04-16T00:53:30.603Z,18.02
2023-04-16T00:53:42.533Z,18.03
2023-04-16T00:53:53.617Z,18.03
2023-04-16T00:54:05.562Z,18.03
2023-04-16T00:54:16.551Z,18.04
2023-04-16T00:54:27.528Z,18.02
2023-04-16T00:54:38.607Z,18.01
2023-04-16T00:54:50.560Z,18.02
2023-04-16T00:55:01.592Z,18.03
2023-04-16T00:55:13.552Z,18.03
2023-04-16T00:55:24.531Z,18.02
2023-04-16T00:55:35.620Z,18.04
2023-04-16T00:55:47.580Z,18.02
2023-04-16T00:55:58.568Z,18.02
2023-04-16T00:56:09.560Z,18.00
2023-04-16T00:56:20.679Z,18.01
2023-04-16T00:56:32.546Z,18.02
2023-04-16T00:56:43.534Z,18.02
2023-04-16T00:56:54.617Z,18.02
2023-04-16T00:57:06.566Z,18.02
2023-04-16T00:57:17.557Z,18.02
2023-04-16T00:57:28.571Z,18.01
2023-04-16T00:57:39.552Z,18.01
2023-04-16T00:57:50.528Z,18.01
2023-04-16T00:58:01.517Z,18.02
2023-04-16T00:58:12.627Z,18.01
2023-04-16T00:58:24.599Z,18.01
2023-04-16T00:58:35.602Z,18.03
2023-04-16T00:58:47.556Z,18.02
2023-04-16T00:58:58.530Z,18.01
2023-04-16T00:59:09.762Z,18.02
2023-04-16T00:59:20.620Z,18.02
2023-04-16T00:59:32.553Z,18.03
2023-04-16T00:59:43.548Z,18.03
2023-04-16T00:59:54.527Z,18.02
2023-04-16T01:00:05.548Z,18.02
2023-04-16T01:00:16.532Z,18.03
2023-04-16T01:00:27.522Z,18.01
2023-04-16T01:00:38.606Z,18.02
2023-04-16T01:00:50.560Z,18.03
2023-04-16T01:01:01.572Z,18.03
2023-04-16T01:01:12.562Z,18.03
2023-04-16T01:01:23.659Z,18.03
2023-04-16T01:01:35.554Z,18.03
2023-04-16T01:01:46.633Z,18.04
2023-04-16T01:01:57.648Z,18.03
2023-04-16T01:02:09.662Z,18.03
2023-04-16T01:02:21.598Z,18.03
2023-04-16T01:02:33.681Z,18.02
2023-04-16T01:02:44.631Z,18.03
2023-04-16T01:02:56.736Z,18.03
2023-04-16T01:03:08.652Z,18.03
2023-04-16T01:03:19.761Z,18.04
2023-04-16T01:03:30.702Z,18.02
2023-04-16T01:03:41.659Z,18.04
2023-04-16T01:03:52.844Z,18.03
2023-04-16T01:04:04.653Z,18.03
2023-04-16T01:04:15.787Z,18.04
2023-04-16T01:04:26.652Z,18.04
2023-04-16T01:04:38.580Z,18.03
2023-04-16T01:04:50.603Z,18.03
2023-04-16T01:05:02.559Z,18.05
2023-04-16T01:05:13.547Z,18.03
2023-04-16T01:05:24.618Z,18.03
2023-04-16T01:05:36.578Z,18.03
2023-04-16T01:05:47.573Z,18.04
2023-04-16T01:05:58.553Z,18.04
2023-04-16T01:06:09.547Z,18.03
2023-04-16T01:06:20.527Z,18.04
2023-04-16T01:06:31.616Z,18.04
2023-04-16T01:06:43.559Z,18.04
2023-04-16T01:06:54.544Z,18.04
2023-04-16T01:07:05.524Z,18.04
2023-04-16T01:07:16.594Z,18.05
2023-04-16T01:07:27.579Z,18.03
2023-04-16T01:07:38.546Z,18.03
2023-04-16T01:07:49.542Z,18.04
2023-04-16T01:08:00.535Z,18.02
2023-04-16T01:08:11.632Z,18.02
2023-04-16T01:08:23.558Z,18.03
2023-04-16T01:08:34.567Z,18.02
2023-04-16T01:08:45.562Z,18.02
2023-04-16T01:08:56.552Z,18.03
2023-04-16T01:09:07.866Z,18.04
2023-04-16T01:09:18.543Z,18.03
2023-04-16T01:09:29.623Z,18.03
2023-04-16T01:09:41.564Z,18.03
2023-04-16T01:09:52.528Z,18.03
2023-04-16T01:10:03.626Z,18.03
2023-04-16T01:10:15.575Z,18.03
2023-04-16T01:10:26.575Z,18.03
2023-04-16T01:10:37.575Z,18.02
2023-04-16T01:10:48.579Z,18.03
2023-04-16T01:10:59.560Z,18.03
2023-04-16T01:11:10.539Z,18.02
2023-04-16T01:11:21.538Z,18.04
2023-04-16T01:11:32.610Z,18.02
2023-04-16T01:11:44.578Z,18.03
2023-04-16T01:11:55.571Z,18.02
2023-04-16T01:12:06.561Z,18.03
2023-04-16T01:12:17.553Z,18.04
2023-04-16T01:12:28.558Z,18.02
2023-04-16T01:12:39.618Z,18.02
2023-04-16T01:12:51.564Z,18.02
2023-04-16T01:13:02.549Z,18.02
2023-04-16T01:13:13.562Z,18.04
2023-04-16T01:13:24.546Z,18.04
2023-04-16T01:13:35.614Z,18.03
2023-04-16T01:13:47.567Z,18.02
2023-04-16T01:13:58.547Z,18.02
2023-04-16T01:14:09.611Z,18.02
2023-04-16T01:14:21.549Z,18.02
2023-04-16T01:14:32.551Z,18.02
2023-04-16T01:14:43.530Z,18.03
2023-04-16T01:14:54.610Z,18.03
2023-04-16T01:15:05.586Z,18.02
2023-04-16T01:15:16.552Z,18.03
2023-04-16T01:15:27.558Z,18.03
2023-04-16T01:15:38.557Z,18.03
2023-04-16T01:15:49.605Z,18.03
2023-04-16T01:16:00.627Z,18.03
2023-04-16T01:16:12.627Z,18.03
2023-04-16T01:16:23.595Z,18.04
2023-04-16T01:16:34.546Z,18.03
2023-04-16T01:16:45.619Z,18.02
2023-04-16T01:16:57.549Z,18.04
2023-04-16T01:17:08.551Z,18.02
2023-04-16T01:17:19.625Z,18.04
2023-04-16T01:17:31.575Z,18.04
2023-04-16T01:17:42.650Z,18.04
2023-04-16T01:17:53.625Z,18.03
2023-04-16T01:18:04.576Z,18.03
2023-04-16T01:18:15.559Z,18.04
2023-04-16T01:18:26.530Z,18.04
2023-04-16T01:18:37.660Z,18.05
2023-04-16T01:18:49.638Z,18.04
2023-04-16T01:19:01.606Z,18.04
2023-04-16T01:19:13.580Z,18.04
2023-04-16T01:19:24.573Z,18.03
2023-04-16T01:19:35.552Z,18.04
2023-04-16T01:19:46.514Z,18.03
2023-04-16T01:19:57.606Z,18.03
2023-04-16T01:20:09.557Z,18.04
2023-04-16T01:20:20.555Z,18.04
2023-04-16T01:20:31.540Z,18.03
2023-04-16T01:20:42.524Z,18.03
2023-04-16T01:20:53.627Z,18.02
2023-04-16T01:21:05.565Z,18.03
2023-04-16T01:21:16.563Z,18.03
2023-04-16T01:21:27.586Z,18.04
2023-04-16T01:21:38.613Z,18.03
2023-04-16T01:21:50.567Z,18.04
2023-04-16T01:22:01.540Z,18.03
2023-04-16T01:22:12.628Z,18.03
2023-04-16T01:22:24.613Z,18.02
2023-04-16T01:22:36.557Z,18.04
2023-04-16T01:22:47.537Z,18.01
2023-04-16T01:22:58.623Z,18.02
2023-04-16T01:23:10.556Z,18.01
2023-04-16T01:23:21.548Z,18.02
2023-04-16T01:23:32.539Z,18.02
2023-04-16T01:23:43.626Z,18.01
2023-04-16T01:23:55.587Z,18.02
2023-04-16T01:24:06.569Z,18.03
2023-04-16T01:24:17.544Z,18.02
2023-04-16T01:24:28.620Z,18.02
2023-04-16T01:24:40.562Z,18.02
2023-04-16T01:24:51.531Z,18.02
2023-04-16T01:25:02.539Z,18.02
2023-04-16T01:25:13.619Z,18.02
2023-04-16T01:25:25.577Z,18.03
2023-04-16T01:25:36.555Z,18.02
2023-04-16T01:25:47.558Z,18.03
2023-04-16T01:25:58.542Z,18.04
2023-04-16T01:26:09.623Z,18.02
2023-04-16T01:26:21.564Z,18.05
2023-04-16T01:26:32.539Z,18.02
2023-04-16T01:26:43.618Z,18.03
2023-04-16T01:26:55.566Z,18.02
2023-04-16T01:27:06.547Z,18.03
2023-04-16T01:27:17.616Z,18.04
2023-04-16T01:27:29.537Z,18.04
2023-04-16T01:27:40.541Z,18.03
2023-04-16T01:27:51.528Z,18.04
2023-04-16T01:28:02.642Z,18.04
2023-04-16T01:28:14.581Z,18.03
2023-04-16T01:28:25.571Z,18.03
2023-04-16T01:28:36.589Z,18.04
2023-04-16T01:28:47.589Z,18.03
2023-04-16T01:28:58.568Z,18.03
2023-04-16T01:29:09.674Z,18.05
2023-04-16T01:29:20.587Z,18.04
2023-04-16T01:29:31.570Z,18.04
2023-04-16T01:29:42.545Z,18.03
2023-04-16T01:29:53.606Z,18.04
2023-04-16T01:30:05.564Z,18.04
2023-04-16T01:30:16.520Z,18.04
2023-04-16T01:30:27.605Z,18.04
2023-04-16T01:30:39.551Z,18.05
2023-04-16T01:30:50.537Z,18.03
2023-04-16T01:31:01.723Z,18.03
2023-04-16T01:31:13.705Z,18.02
2023-04-16T01:31:25.619Z,18.03
2023-04-16T01:31:37.637Z,18.02
2023-04-16T01:31:48.612Z,18.02
2023-04-16T01:32:00.606Z,18.02
2023-04-16T01:32:11.586Z,18.03
2023-04-16T01:32:22.584Z,18.02
2023-04-16T01:32:34.564Z,18.02
2023-04-16T01:32:45.555Z,18.02
2023-04-16T01:32:56.583Z,18.03
2023-04-16T01:33:07.577Z,18.02
2023-04-16T01:33:18.561Z,18.02
2023-04-16T01:33:29.549Z,18.01
2023-04-16T01:33:40.528Z,18.01
2023-04-16T01:33:51.528Z,18.02
2023-04-16T01:34:02.605Z,18.01
2023-04-16T01:34:13.582Z,18.01
2023-04-16T01:34:24.568Z,18.02
2023-04-16T01:34:35.557Z,18.01
2023-04-16T01:34:46.565Z,18.00
2023-04-16T01:34:57.550Z,18.01
2023-04-16T01:35:08.529Z,18.01
2023-04-16T01:35:19.600Z,18.00
2023-04-16T01:35:31.560Z,18.00
2023-04-16T01:35:42.542Z,18.01
2023-04-16T01:35:53.531Z,18.01
2023-04-16T01:36:04.613Z,18.01
2023-04-16T01:36:16.557Z,18.01
2023-04-16T01:36:27.552Z,18.01
2023-04-16T01:36:38.535Z,18.02
2023-04-16T01:36:49.618Z,18.01
2023-04-16T01:37:01.560Z,18.02
2023-04-16T01:37:12.545Z,18.03
2023-04-16T01:37:23.547Z,18.02
2023-04-16T01:37:34.625Z,18.02
2023-04-16T01:37:46.552Z,18.03
2023-04-16T01:37:57.533Z,18.02
2023-04-16T01:38:08.628Z,18.02
2023-04-16T01:38:20.583Z,18.03
2023-04-16T01:38:31.565Z,18.03
2023-04-16T01:38:42.552Z,18.02
2023-04-16T01:38:53.525Z,18.02
2023-04-16T01:39:04.621Z,18.01
2023-04-16T01:39:16.662Z,18.02
2023-04-16T01:39:28.605Z,18.02
2023-04-16T01:39:39.588Z,18.02
2023-04-16T01:39:50.565Z,18.01
2023-04-16T01:40:02.585Z,18.02
2023-04-16T01:40:13.570Z,18.01
2023-04-16T01:40:24.552Z,18.02
2023-04-16T01:40:35.535Z,18.01
2023-04-16T01:40:46.615Z,18.01
2023-04-16T01:40:58.561Z,18.02
2023-04-16T01:41:09.540Z,18.00
2023-04-16T01:41:20.553Z,18.02
2023-04-16T01:41:31.533Z,18.01
2023-04-16T01:41:42.609Z,18.02
2023-04-16T01:41:53.578Z,18.01
2023-04-16T01:42:04.572Z,18.01
2023-04-16T01:42:15.553Z,18.00
2023-04-16T01:42:26.538Z,18.00
2023-04-16T01:42:37.570Z,18.01
2023-04-16T01:42:48.547Z,18.00
2023-04-16T01:42:59.537Z,17.99
2023-04-16T01:43:10.616Z,18.00
2023-04-16T01:43:21.584Z,18.00
2023-04-16T01:43:32.562Z,18.01
2023-04-16T01:43:43.547Z,18.02
2023-04-16T01:43:54.619Z,18.00
2023-04-16T01:44:06.578Z,18.02
2023-04-16T01:44:17.560Z,18.01
2023-04-16T01:44:28.555Z,18.01
2023-04-16T01:44:39.536Z,18.01
2023-04-16T01:44:50.608Z,18.01
2023-04-16T01:45:01.589Z,18.01
2023-04-16T01:45:12.556Z,18.02
2023-04-16T01:45:23.545Z,18.01
2023-04-16T01:45:34.638Z,18.02
2023-04-16T01:45:46.589Z,18.02
2023-04-16T01:45:57.557Z,18.02
2023-04-16T01:46:08.550Z,18.03
2023-04-16T01:46:19.567Z,18.02
2023-04-16T01:46:30.563Z,18.02
2023-04-16T01:46:41.565Z,18.02
2023-04-16T01:46:52.596Z,18.02
2023-04-16T01:47:04.677Z,18.01
2023-04-16T01:47:16.595Z,18.02
2023-04-16T01:47:27.633Z,18.01
2023-04-16T01:47:39.651Z,17.99
2023-04-16T01:47:51.623Z,18.02
2023-04-16T01:48:03.570Z,18.00
2023-04-16T01:48:14.567Z,18.01
2023-04-16T01:48:25.552Z,18.01
2023-04-16T01:48:36.540Z,18.02
2023-04-16T01:48:47.631Z,18.02
2023-04-16T01:48:59.575Z,18.02
2023-04-16T01:49:10.716Z,18.01
2023-04-16T01:49:21.536Z,18.01
2023-04-16T01:49:32.615Z,18.01
2023-04-16T01:49:43.568Z,18.01
2023-04-16T01:49:54.568Z,18.00
2023-04-16T01:50:05.549Z,18.00
2023-04-16T01:50:16.565Z,17.99
2023-04-16T01:50:27.535Z,18.00
2023-04-16T01:50:38.616Z,17.99
2023-04-16T01:50:50.563Z,18.00
2023-04-16T01:51:01.535Z,18.00
2023-04-16T01:51:12.614Z,17.99
2023-04-16T01:51:24.557Z,17.99
2023-04-16T01:51:35.527Z,18.00
2023-04-16T01:51:46.607Z,18.00
2023-04-16T01:51:57.590Z,18.00
2023-04-16T01:52:09.383Z,18.00
2023-04-16T01:52:20.571Z,18.00
2023-04-16T01:52:31.580Z,18.00
2023-04-16T01:52:42.552Z,18.01
2023-04-16T01:52:53.557Z,18.00
2023-04-16T01:53:04.545Z,18.00
2023-04-16T01:53:15.649Z,17.98
2023-04-16T01:53:27.608Z,17.99
2023-04-16T01:53:38.580Z,17.99
2023-04-16T01:53:49.561Z,18.00
2023-04-16T01:54:00.527Z,18.01
2023-04-16T01:54:11.600Z,18.00
2023-04-16T01:54:23.545Z,18.00
2023-04-16T01:54:34.628Z,18.00
2023-04-16T01:54:46.552Z,18.00
2023-04-16T01:54:57.540Z,18.00
2023-04-16T01:55:08.620Z,18.00
2023-04-16T01:55:20.559Z,18.01
2023-04-16T01:55:31.581Z,18.00
2023-04-16T01:55:42.576Z,18.02
2023-04-16T01:55:53.539Z,18.01
2023-04-16T01:56:04.620Z,18.01
2023-04-16T01:56:16.579Z,18.00
2023-04-16T01:56:27.562Z,18.00
2023-04-16T01:56:38.533Z,18.00
2023-04-16T01:56:49.573Z,18.00
2023-04-16T01:57:00.551Z,18.00
2023-04-16T01:57:11.626Z,18.00
2023-04-16T01:57:23.564Z,18.00
2023-04-16T01:57:34.552Z,18.01
2023-04-16T01:57:45.630Z,18.00
2023-04-16T01:57:57.556Z,18.01
2023-04-16T01:58:08.542Z,17.99
2023-04-16T01:58:19.617Z,18.01
2023-04-16T01:58:31.549Z,18.00
2023-04-16T01:58:42.546Z,18.00
2023-04-16T01:58:53.542Z,18.00
2023-04-16T01:59:04.615Z,18.01
2023-04-16T01:59:16.562Z,17.99
2023-04-16T01:59:27.561Z,18.00
2023-04-16T01:59:38.541Z,18.00
2023-04-16T01:59:49.616Z,18.01
2023-04-16T02:00:00.601Z,18.01
2023-04-16T02:00:11.589Z,18.00
2023-04-16T02:00:22.566Z,18.01
2023-04-16T02:00:33.579Z,17.99
2023-04-16T02:00:45.629Z,18.01
2023-04-16T02:00:56.573Z,17.99
2023-04-16T02:01:07.664Z,18.00
2023-04-16T02:01:18.670Z,17.99
2023-04-16T02:01:30.632Z,18.01
2023-04-16T02:01:42.580Z,18.01
2023-04-16T02:01:53.673Z,17.99
2023-04-16T02:02:04.681Z,18.00
2023-04-16T02:02:16.625Z,18.01
2023-04-16T02:02:27.620Z,17.99
2023-04-16T02:02:38.684Z,18.00
2023-04-16T02:02:50.678Z,18.00
2023-04-16T02:03:02.919Z,18.00
2023-04-16T02:03:13.799Z,17.99
2023-04-16T02:03:25.587Z,18.00
2023-04-16T02:03:36.762Z,17.99
2023-04-16T02:03:47.740Z,18.00
2023-04-16T02:03:58.662Z,18.00
2023-04-16T02:04:10.690Z,18.00
2023-04-16T02:04:22.599Z,18.00
2023-04-16T02:04:33.579Z,18.01
2023-04-16T02:04:44.546Z,18.00
2023-04-16T02:04:55.519Z,18.01
2023-04-16T02:05:06.617Z,17.99
2023-04-16T02:05:18.559Z,18.00
2023-04-16T02:05:29.549Z,18.01
2023-04-16T02:05:40.532Z,18.01
2023-04-16T02:05:51.618Z,18.00
2023-04-16T02:06:03.569Z,17.99
2023-04-16T02:06:14.543Z,18.01
2023-04-16T02:06:25.618Z,18.00
2023-04-16T02:06:36.589Z,17.99
2023-04-16T02:06:47.566Z,18.01
2023-04-16T02:06:58.537Z,18.02
2023-04-16T02:07:09.625Z,18.00
2023-04-16T02:07:21.580Z,18.01
2023-04-16T02:07:32.585Z,18.01
2023-04-16T02:07:43.574Z,18.00
2023-04-16T02:07:54.582Z,18.01
2023-04-16T02:08:05.558Z,18.01
2023-04-16T02:08:16.538Z,18.00
2023-04-16T02:08:27.628Z,17.98
2023-04-16T02:08:39.572Z,18.01
2023-04-16T02:08:50.541Z,18.01
2023-04-16T02:09:01.601Z,18.00
2023-04-16T02:09:13.558Z,17.99
2023-04-16T02:09:24.536Z,18.00
2023-04-16T02:09:35.636Z,17.99
2023-04-16T02:09:47.585Z,18.00
2023-04-16T02:09:58.574Z,18.00
2023-04-16T02:10:09.546Z,17.99
2023-04-16T02:10:20.627Z,17.99
2023-04-16T02:10:32.588Z,17.99
2023-04-16T02:10:43.571Z,17.99
2023-04-16T02:10:54.558Z,18.00
2023-04-16T02:11:05.541Z,17.99
2023-04-16T02:11:16.624Z,17.98
2023-04-16T02:11:28.558Z,17.99
2023-04-16T02:11:39.527Z,17.99
2023-04-16T02:11:50.604Z,18.00
2023-04-16T02:12:02.560Z,17.99
2023-04-16T02:12:13.556Z,18.00
2023-04-16T02:12:24.527Z,17.99
2023-04-16T02:12:35.588Z,17.99
2023-04-16T02:12:46.585Z,18.00
2023-04-16T02:12:57.566Z,18.00
2023-04-16T02:13:08.537Z,17.99
2023-04-16T02:13:19.614Z,18.01
2023-04-16T02:13:30.582Z,18.00
2023-04-16T02:13:41.562Z,17.99
2023-04-16T02:13:52.538Z,17.98
2023-04-16T02:14:03.543Z,18.00
2023-04-16T02:14:14.629Z,17.99
2023-04-16T02:14:26.569Z,17.99
2023-04-16T02:14:37.560Z,17.99
2023-04-16T02:14:48.528Z,17.99
2023-04-16T02:14:59.611Z,18.00
2023-04-16T02:15:11.550Z,17.98
2023-04-16T02:15:22.509Z,17.99
2023-04-16T02:15:33.599Z,17.99
2023-04-16T02:15:44.578Z,18.00
2023-04-16T02:15:55.571Z,17.99
2023-04-16T02:16:06.600Z,17.99
2023-04-16T02:16:18.667Z,17.99
2023-04-16T02:16:29.570Z,18.00
2023-04-16T02:16:40.635Z,17.99
2023-04-16T02:16:52.609Z,18.00
2023-04-16T02:17:04.616Z,17.99
2023-04-16T02:17:16.555Z,17.98
2023-04-16T02:17:27.581Z,17.98
2023-04-16T02:17:38.649Z,17.98
2023-04-16T02:17:50.647Z,17.99
2023-04-16T02:18:02.639Z,17.99
2023-04-16T02:18:14.624Z,17.99
2023-04-16T02:18:26.584Z,17.99
2023-04-16T02:18:37.572Z,18.00
2023-04-16T02:18:48.556Z,17.99
2023-04-16T02:18:59.528Z,17.98
2023-04-16T02:19:10.709Z,18.00
2023-04-16T02:19:22.631Z,17.99
2023-04-16T02:19:34.607Z,17.99
2023-04-16T02:19:45.579Z,18.01
2023-04-16T02:19:56.571Z,18.00
2023-04-16T02:20:07.558Z,18.00
2023-04-16T02:20:18.536Z,17.99
2023-04-16T02:20:29.608Z,17.99
2023-04-16T02:20:40.585Z,17.98
2023-04-16T02:20:51.566Z,17.98
2023-04-16T02:21:02.554Z,17.98
2023-04-16T02:21:13.531Z,17.99
2023-04-16T02:21:24.619Z,17.99
2023-04-16T02:21:36.559Z,17.99
2023-04-16T02:21:47.535Z,17.99
2023-04-16T02:21:58.524Z,17.99
2023-04-16T02:22:09.606Z,18.00
2023-04-16T02:22:21.581Z,17.98
2023-04-16T02:22:32.557Z,17.99
2023-04-16T02:22:43.532Z,17.98
2023-04-16T02:22:54.621Z,18.00
2023-04-16T02:23:06.595Z,17.99
2023-04-16T02:23:18.554Z,17.98
2023-04-16T02:23:29.537Z,17.99
2023-04-16T02:23:40.617Z,17.98
2023-04-16T02:23:52.555Z,18.00
2023-04-16T02:24:03.552Z,18.00
2023-04-16T02:24:14.543Z,17.99
2023-04-16T02:24:25.617Z,18.01
2023-04-16T02:24:37.594Z,18.00
2023-04-16T02:24:48.577Z,18.00